Salinas, CA (93907)

7:41 AM PDT on September 30, 2014 (GMT -0700)
Prunedale | Change Station
CLOSE
Current Station
Personal Weather Station
Location: Salinas, CA
Elevation: 71 m
Nearby Weather Stations

Elev 71 m 36.81 °N, 121.68 °W | Updated 3 seconds ago

Overcast
Overcast
14.5 °C
Feels Like 14.5 °C
N
1.6
Wind Variable Wind from South
Gusts 0.0 km/h

Today
High -- | Low -- °C
--% Chance of Precip.
Yesterday
High -- | Low -- °C
Precip. -- mm
7:01 AM 6:51 PM
Waxing Crescent, 37% visible
Pressure 1016 hPa
Visibility 12.9 kilometers
Clouds Overcast 182 m
Dew Point 12 °C
Humidity 87%
Rainfall 0 mm
Snow Depth 2 in , 0 in , 0 in
UV 0.0 out of 12
Pollen 2.80 out of 12
Air Quality Not available.
Flu Activity Not available.
METAR KSNS 301353Z 25004KT 8SM OVC006 14/13 A2998 RMK AO2 SLP159 T01440133

More Conditions Fewer Conditions

Pressure 1016 hPa
Visibility 12.9 kilometers
Clouds Overcast 182 m
Dew Point 12 °C
Humidity 87%
Rainfall 0 mm
Snow Depth 2 in , 0 in , 0 in
UV 0.0 out of 12
Pollen 2.80 out of 12
Air Quality Not available.
Flu Activity Not available.
METAR KSNS 301353Z 25004KT 8SM OVC006 14/13 A2998 RMK AO2 SLP159 T01440133

More Conditions Fewer Conditions

10-Day Weather Forecast

Almanac

Astronomy

Sep. 30, 2014 Rise Set
Actual Time 7:01 AM PDT 6:51 PM PDT
Civil Twilight 6:35 AM PDT 7:17 PM PDT
Nautical Twilight 6:05 AM PDT 7:47 PM PDT
Astronomical Twilight 5:35 AM PDT 8:17 PM PDT
Moon 1:07 PM PDT 11:33 PM PDT
Length of Visible Light 12h 41m
Length of Day
11h 50m
Tomorrow will be 2m 19s shorter.
Waxing Crescent, 37% of the Moon is Illuminated
Today
Waxing Crescent
Oct 1
First Quarter
Oct 8
Full
Oct 15
Last Quarter
Oct 23
New

Today's Extremes

State Highs State Lows

Community

WunderPhotos

Upload Photos

1,757,641 photos uploaded!

WunderBlogs® & News

By Dr. Jeff Masters
Director of Meteorology, Weather Underground
By Kari Strenfel
Meteorologist, Weather Underground
By Christopher C. Burt
Weather Historian, Weather Underground
September 30, 2014
September 30, 2014
September 30, 2014

Nearby

Snow Depth

Station Depth Elevation
Summit Meadow 2 in 9122 ft
Fallen Leaf 0 in 6300 ft
Crowder Flat 0 in 5100 ft
Truckee #2 0 in 6400 ft
Squaw Valley 0 in 8200 ft

Earthquake Activity

City Distance Mag. Time & Date
South Dos Palos, California 74 kilometers 2.5 9:18 PM PDT
2014-09-29
American Canyon, California 168 kilometers 2.6 12:17 AM PDT
2014-09-29
South Dos Palos, California 75 kilometers 2.7 8:46 PM PDT
2014-09-28
South Dos Palos, California 75 kilometers 4.4 1:45 PM PDT
2014-09-28
Minimum magnitude displayed is 2.5.

Coastal Water Temperatures

Place Temperature
Monterey, CA 16.7 °C
Redwood City, CA 21.1 °C

Nearby Weather Stations